Terminal Aerodrome Forecast
Issued by NWS Charleston, WV

Current Version | Previous Version | Text Only | Print | Product List | Glossary Off
Versions: 1 2 3 4 5 6 7 8 9 10 11 12 13 14 15 16 17 18 19 20 21 22 23 24 25 26

945
FTUS41 KRLX 202320
TAFBKW
TAF
KBKW 202320Z 2100/2124 13006KT P6SM SCT250
     FM210400 14010G16KT P6SM FEW200
     FM211200 14012G20KT P6SM SCT200
     FM211500 15012KT P6SM SCT250
     FM212100 16009KT P6SM BKN120=

USA.gov is the U.S. government's official web portal to all federal, state and local government web resources and services.